createdAt,value
2018-10-05T00:01:57.691Z,20.53
2018-10-05T00:04:26.332Z,14.17
2018-10-05T00:06:54.912Z,19.80
2018-10-05T00:09:23.444Z,19.00
2018-10-05T00:11:52.069Z,16.60
2018-10-05T00:14:20.640Z,16.40
2018-10-05T00:16:49.281Z,14.43
2018-10-05T00:19:17.828Z,16.07
2018-10-05T00:21:46.409Z,15.17
2018-10-05T00:24:14.961Z,15.63
2018-10-05T00:26:43.576Z,22.63
2018-10-05T00:29:12.205Z,14.57
2018-10-05T00:31:41.295Z,14.90
2018-10-05T00:34:09.843Z,12.67
2018-10-05T00:36:38.400Z,10.43
2018-10-05T00:39:08.853Z,18.00
2018-10-05T00:41:37.448Z,20.00
2018-10-05T00:44:06.091Z,14.93
2018-10-05T00:46:34.654Z,14.00
2018-10-05T00:49:03.241Z,12.43
2018-10-05T00:51:31.801Z,13.77
2018-10-05T00:54:00.380Z,18.20
2018-10-05T00:56:28.917Z,13.23
2018-10-05T00:58:57.546Z,15.50
2018-10-05T01:01:26.101Z,14.93
2018-10-05T01:03:54.681Z,17.50
2018-10-05T01:06:23.227Z,13.70
2018-10-05T01:08:51.878Z,16.70
2018-10-05T01:11:20.479Z,17.77
2018-10-05T01:13:49.021Z,16.73
2018-10-05T01:16:17.570Z,14.93
2018-10-05T01:18:46.181Z,16.20
2018-10-05T01:21:14.733Z,18.10
2018-10-05T01:23:43.281Z,14.00
2018-10-05T01:26:11.798Z,16.90
2018-10-05T01:28:40.365Z,16.77
2018-10-05T01:31:08.922Z,17.30
2018-10-05T01:33:37.472Z,19.83
2018-10-05T01:36:06.008Z,16.53
2018-10-05T01:38:34.545Z,13.50
2018-10-05T01:41:03.069Z,12.83
2018-10-05T01:43:31.617Z,18.93
2018-10-05T01:46:00.130Z,14.07
2018-10-05T01:48:29.517Z,14.13
2018-10-05T01:50:58.037Z,11.90
2018-10-05T01:53:26.592Z,13.77
2018-10-05T01:55:55.105Z,13.83
2018-10-05T01:58:23.649Z,15.97
2018-10-05T02:00:52.160Z,11.83
2018-10-05T02:03:20.725Z,15.63
2018-10-05T02:05:49.233Z,15.53
2018-10-05T02:08:17.792Z,17.37
2018-10-05T02:10:46.300Z,15.73
2018-10-05T02:13:14.845Z,15.97
2018-10-05T02:15:43.369Z,16.90
2018-10-05T02:18:11.941Z,23.93
2018-10-05T02:20:40.459Z,12.37
2018-10-05T02:23:09.017Z,14.77
2018-10-05T02:25:37.532Z,14.10
2018-10-05T02:28:06.054Z,13.47
2018-10-05T02:30:34.631Z,16.07
2018-10-05T02:33:03.190Z,16.43
2018-10-05T02:35:31.701Z,10.37
2018-10-05T02:38:00.216Z,11.17
2018-10-05T02:40:28.806Z,10.50
2018-10-05T02:42:57.325Z,12.90
2018-10-05T02:45:25.873Z,15.30
2018-10-05T02:47:54.372Z,19.67
2018-10-05T02:50:22.929Z,15.83
2018-10-05T02:52:51.521Z,11.60
2018-10-05T02:55:20.124Z,16.10
2018-10-05T02:57:48.872Z,11.33
2018-10-05T03:00:28.548Z,13.77
2018-10-05T03:02:57.078Z,11.13
2018-10-05T03:05:25.623Z,13.70
2018-10-05T03:07:54.117Z,11.27
2018-10-05T03:10:22.684Z,13.87
2018-10-05T03:12:51.208Z,17.23
2018-10-05T03:15:19.794Z,13.40
2018-10-05T03:17:48.355Z,12.80
2018-10-05T03:20:16.920Z,19.33
2018-10-05T03:22:45.458Z,18.57
2018-10-05T03:25:14.033Z,17.47
2018-10-05T03:27:42.581Z,13.27
2018-10-05T03:30:11.141Z,13.80
2018-10-05T03:32:39.688Z,14.00
2018-10-05T03:35:08.276Z,12.60
2018-10-05T03:37:36.815Z,14.40
2018-10-05T03:40:05.493Z,19.13
2018-10-05T03:42:34.029Z,16.53
2018-10-05T03:45:02.592Z,21.30
2018-10-05T03:47:31.132Z,20.33
2018-10-05T03:49:59.695Z,21.83
2018-10-05T03:52:28.234Z,16.53
2018-10-05T03:54:56.808Z,13.80
2018-10-05T03:57:25.345Z,14.10
2018-10-05T03:59:54.149Z,14.40
2018-10-05T04:02:22.699Z,15.77
2018-10-05T04:04:51.272Z,14.00
2018-10-05T04:07:19.804Z,15.47
2018-10-05T04:09:48.364Z,14.93
2018-10-05T04:12:16.941Z,12.83
2018-10-05T04:14:45.492Z,13.97
2018-10-05T04:17:14.149Z,14.30
2018-10-05T04:19:42.660Z,11.33
2018-10-05T04:22:11.315Z,15.53
2018-10-05T04:24:39.840Z,17.50
2018-10-05T04:27:08.431Z,13.50
2018-10-05T04:29:36.944Z,10.90
2018-10-05T04:32:05.501Z,9.47
2018-10-05T04:34:34.042Z,10.97
2018-10-05T04:37:02.596Z,10.33
2018-10-05T04:39:31.124Z,14.27
2018-10-05T04:41:59.681Z,16.10
2018-10-05T04:44:28.201Z,24.23
2018-10-05T04:46:56.772Z,16.53
2018-10-05T04:49:25.350Z,22.10
2018-10-05T04:51:53.881Z,12.93
2018-10-05T04:54:22.413Z,16.30
2018-10-05T04:56:51.072Z,10.47
2018-10-05T04:59:19.536Z,14.23
2018-10-05T05:01:49.675Z,12.63
2018-10-05T05:04:18.249Z,11.10
2018-10-05T05:06:46.807Z,11.13
2018-10-05T05:09:15.329Z,14.17
2018-10-05T05:11:43.868Z,19.57
2018-10-05T05:14:12.401Z,18.27
2018-10-05T05:16:40.958Z,16.93
2018-10-05T05:19:09.559Z,12.00
2018-10-05T05:21:38.192Z,13.93
2018-10-05T05:24:06.784Z,14.93
2018-10-05T05:26:35.389Z,20.87
2018-10-05T05:29:03.941Z,17.07
2018-10-05T05:31:32.528Z,15.57
2018-10-05T05:34:01.123Z,17.10
2018-10-05T05:36:29.708Z,15.17
2018-10-05T05:38:58.291Z,16.47
2018-10-05T05:41:26.861Z,18.80
2018-10-05T05:43:55.401Z,22.47
2018-10-05T05:46:24.103Z,16.90
2018-10-05T05:48:52.683Z,22.97
2018-10-05T05:51:21.620Z,15.87
2018-10-05T05:53:50.248Z,14.80
2018-10-05T05:56:18.993Z,16.10
2018-10-05T05:58:47.547Z,19.50
2018-10-05T06:01:16.296Z,16.97
2018-10-05T06:03:44.733Z,23.50
2018-10-05T06:06:19.812Z,20.60
2018-10-05T06:08:52.040Z,16.70
2018-10-05T06:11:20.969Z,17.23
2018-10-05T06:13:49.715Z,20.83
2018-10-05T06:16:18.490Z,17.60
2018-10-05T06:18:47.100Z,21.10
2018-10-05T06:21:15.649Z,22.23
2018-10-05T06:23:44.284Z,26.53
2018-10-05T06:26:14.124Z,25.67
2018-10-05T06:28:42.652Z,29.13
2018-10-05T06:31:11.510Z,22.90
2018-10-05T06:33:40.089Z,24.10
2018-10-05T06:36:08.964Z,21.87
2018-10-05T06:38:37.517Z,26.00
2018-10-05T06:41:06.129Z,25.23
2018-10-05T06:43:35.066Z,21.43
2018-10-05T06:46:03.661Z,19.30
2018-10-05T06:48:32.253Z,21.93
2018-10-05T06:51:00.868Z,23.80
2018-10-05T06:53:29.592Z,29.77
2018-10-05T06:55:59.520Z,23.93
2018-10-05T06:58:28.653Z,25.47
2018-10-05T07:00:58.472Z,23.37
2018-10-05T07:03:27.185Z,25.63
2018-10-05T07:06:02.131Z,22.97
2018-10-05T07:08:37.679Z,21.37
2018-10-05T07:11:08.216Z,29.70
2018-10-05T07:13:43.588Z,26.37
2018-10-05T07:16:20.176Z,26.20
2018-10-05T07:18:56.468Z,18.43
2018-10-05T07:21:32.397Z,24.33
2018-10-05T07:24:10.193Z,23.50
2018-10-05T07:26:44.590Z,22.40
2018-10-05T07:29:20.576Z,27.13
2018-10-05T07:31:56.212Z,17.60
2018-10-05T07:34:33.437Z,24.07
2018-10-05T07:37:11.490Z,24.97
2018-10-05T07:39:40.221Z,19.70
2018-10-05T07:42:08.809Z,16.03
2018-10-05T07:44:37.344Z,16.67
2018-10-05T07:47:05.961Z,18.17
2018-10-05T07:49:34.484Z,20.67
2018-10-05T07:52:03.049Z,20.17
2018-10-05T07:54:36.641Z,22.60
2018-10-05T07:57:10.488Z,12.47
2018-10-05T07:59:39.784Z,14.47
2018-10-05T08:02:10.648Z,16.07
2018-10-05T08:04:41.748Z,16.57
2018-10-05T08:07:12.101Z,13.87
2018-10-05T08:09:46.281Z,15.63
2018-10-05T08:12:21.643Z,18.33
2018-10-05T08:14:53.569Z,20.50
2018-10-05T08:17:23.176Z,19.80
2018-10-05T08:19:52.183Z,14.23
2018-10-05T08:22:27.349Z,16.67
2018-10-05T08:25:00.298Z,23.13
2018-10-05T08:27:29.736Z,17.40
2018-10-05T08:29:59.064Z,15.40
2018-10-05T08:32:27.628Z,17.13
2018-10-05T08:35:03.277Z,19.00
2018-10-05T08:37:36.053Z,15.00
2018-10-05T08:40:05.783Z,13.47
2018-10-05T08:42:37.476Z,14.13
2018-10-05T08:45:06.060Z,14.20
2018-10-05T08:47:34.787Z,15.37
2018-10-05T08:50:03.399Z,15.10
2018-10-05T08:52:36.930Z,15.00
2018-10-05T08:55:06.787Z,18.27
2018-10-05T08:57:35.762Z,17.63
2018-10-05T09:00:08.710Z,13.83
2018-10-05T09:02:40.921Z,19.03
2018-10-05T09:05:12.637Z,13.87
2018-10-05T09:07:46.008Z,14.90
2018-10-05T09:10:14.814Z,9.93
2018-10-05T09:12:43.771Z,19.67
2018-10-05T09:15:14.009Z,14.87
2018-10-05T09:17:44.728Z,13.57
2018-10-05T09:20:15.197Z,15.73
2018-10-05T09:22:48.851Z,17.07
2018-10-05T09:25:17.824Z,17.43
2018-10-05T09:27:46.376Z,13.00
2018-10-05T09:30:14.949Z,13.57
2018-10-05T09:32:43.468Z,13.87
2018-10-05T09:35:12.086Z,14.80
2018-10-05T09:37:41.165Z,12.30
2018-10-05T09:40:10.417Z,15.53
2018-10-05T09:42:39.097Z,13.60
2018-10-05T09:45:07.843Z,14.30
2018-10-05T09:47:36.358Z,12.00
2018-10-05T09:50:04.945Z,15.00
2018-10-05T09:52:33.546Z,12.63
2018-10-05T09:55:02.072Z,11.73
2018-10-05T09:57:30.772Z,14.17
2018-10-05T09:59:59.470Z,12.33
2018-10-05T10:03:32.799Z,11.80
2018-10-05T10:06:02.727Z,11.17
2018-10-05T10:08:31.366Z,10.63
2018-10-05T10:10:59.901Z,11.43
2018-10-05T10:13:29.739Z,9.17
2018-10-05T10:15:58.837Z,8.60
2018-10-05T10:18:31.392Z,7.10
2018-10-05T10:21:00.147Z,11.13
2018-10-05T10:23:29.042Z,9.67
2018-10-05T10:25:59.004Z,8.90
2018-10-05T10:28:29.073Z,9.37
2018-10-05T10:30:58.224Z,8.83
2018-10-05T10:33:26.762Z,10.33
2018-10-05T10:36:01.713Z,12.63
2018-10-05T10:38:33.257Z,12.10
2018-10-05T10:41:05.990Z,9.33
2018-10-05T10:43:36.328Z,10.77
2018-10-05T10:46:08.675Z,13.37
2018-10-05T10:48:39.652Z,9.30
2018-10-05T10:51:08.209Z,9.23
2018-10-05T10:53:36.735Z,10.03
2018-10-05T10:56:10.603Z,9.50
2018-10-05T10:58:40.112Z,4.93
2018-10-05T11:01:13.543Z,6.80
2018-10-05T11:03:47.679Z,8.10
2018-10-05T11:06:19.996Z,10.00
2018-10-05T11:08:48.752Z,6.70
2018-10-05T11:11:17.313Z,8.20
2018-10-05T11:13:45.852Z,18.87
2018-10-05T11:16:14.434Z,17.90
2018-10-05T11:18:43.064Z,13.27
2018-10-05T11:21:15.169Z,10.87
2018-10-05T11:23:49.325Z,10.20
2018-10-05T11:26:18.156Z,8.47
2018-10-05T11:28:46.720Z,7.73
2018-10-05T11:31:15.294Z,8.10
2018-10-05T11:33:43.853Z,8.40
2018-10-05T11:36:12.412Z,12.40
2018-10-05T11:38:41.512Z,11.03
2018-10-05T11:41:10.411Z,13.53
2018-10-05T11:43:38.961Z,12.27
2018-10-05T11:46:08.206Z,11.57
2018-10-05T11:48:37.139Z,7.53
2018-10-05T11:51:07.220Z,6.90
2018-10-05T11:53:35.805Z,6.90
2018-10-05T11:56:04.623Z,10.20
2018-10-05T11:58:33.168Z,8.37
2018-10-05T12:01:02.104Z,9.87
2018-10-05T12:03:30.654Z,10.00
2018-10-05T12:05:59.188Z,14.53
2018-10-05T12:08:27.751Z,9.63
2018-10-05T12:10:56.352Z,8.37
2018-10-05T12:13:24.946Z,6.13
2018-10-05T12:15:53.489Z,11.60
2018-10-05T12:18:22.101Z,5.87
2018-10-05T12:20:51.910Z,6.20
2018-10-05T12:23:29.492Z,6.10
2018-10-05T12:26:01.219Z,6.07
2018-10-05T12:28:33.531Z,5.83
2018-10-05T12:31:03.676Z,6.57
2018-10-05T12:33:34.796Z,17.77
2018-10-05T12:36:06.426Z,10.40
2018-10-05T12:38:35.094Z,5.57
2018-10-05T12:41:03.644Z,9.63
2018-10-05T12:43:32.221Z,4.47
2018-10-05T12:46:02.984Z,9.83
2018-10-05T12:48:31.561Z,6.77
2018-10-05T12:51:01.610Z,4.90
2018-10-05T12:53:34.121Z,6.23
2018-10-05T12:56:02.848Z,5.47
2018-10-05T12:58:31.411Z,10.73
2018-10-05T13:01:00.009Z,4.73
2018-10-05T13:03:28.710Z,12.50
2018-10-05T13:05:57.260Z,9.63
2018-10-05T13:08:25.874Z,11.53
2018-10-05T13:10:54.416Z,8.57
2018-10-05T13:13:23.058Z,13.90
2018-10-05T13:15:51.612Z,6.33
2018-10-05T13:18:20.212Z,5.37
2018-10-05T13:20:48.749Z,7.30
2018-10-05T13:23:17.323Z,6.47
2018-10-05T13:25:45.900Z,6.63
2018-10-05T13:28:14.460Z,6.93
2018-10-05T13:30:42.988Z,16.17
2018-10-05T13:33:11.540Z,8.03
2018-10-05T13:35:40.060Z,9.07
2018-10-05T13:38:08.628Z,6.00
2018-10-05T13:40:37.194Z,4.60
2018-10-05T13:43:05.782Z,5.17
2018-10-05T13:45:34.301Z,8.10
2018-10-05T13:48:02.886Z,10.70
2018-10-05T13:50:31.424Z,4.83
2018-10-05T13:53:00.025Z,4.90
2018-10-05T13:55:28.561Z,7.00
2018-10-05T13:58:02.324Z,5.43
2018-10-05T14:00:35.397Z,3.33
2018-10-05T14:03:07.367Z,4.53
2018-10-05T14:05:40.698Z,5.17
2018-10-05T14:08:10.934Z,3.60
2018-10-05T14:10:41.950Z,5.43
2018-10-05T14:13:12.953Z,3.33
2018-10-05T14:15:43.114Z,4.33
2018-10-05T14:18:12.677Z,7.23
2018-10-05T14:20:45.553Z,5.00
2018-10-05T14:23:19.483Z,6.20
2018-10-05T14:25:53.189Z,4.97
2018-10-05T14:28:25.513Z,6.73
2018-10-05T14:30:58.789Z,4.10
2018-10-05T14:33:30.465Z,3.13
2018-10-05T14:36:06.345Z,4.23
2018-10-05T14:38:38.429Z,3.40
2018-10-05T14:41:06.998Z,3.00
2018-10-05T14:43:41.489Z,3.43
2018-10-05T14:46:13.616Z,3.33
2018-10-05T14:48:47.217Z,3.23
2018-10-05T14:51:18.544Z,3.30
2018-10-05T14:53:50.815Z,5.57
2018-10-05T14:56:20.907Z,4.83
2018-10-05T14:58:52.086Z,5.03
2018-10-05T15:01:22.908Z,3.07
2018-10-05T15:03:51.683Z,3.43
2018-10-05T15:06:22.947Z,3.30
2018-10-05T15:09:00.629Z,4.70
2018-10-05T15:11:31.413Z,3.93
2018-10-05T15:14:04.000Z,5.17
2018-10-05T15:16:36.447Z,4.87
2018-10-05T15:19:08.760Z,4.43
2018-10-05T15:21:37.952Z,3.70
2018-10-05T15:24:08.535Z,3.90
2018-10-05T15:26:37.260Z,3.67
2018-10-05T15:29:10.265Z,3.97
2018-10-05T15:31:40.837Z,4.60
2018-10-05T15:34:11.065Z,4.30
2018-10-05T15:36:44.206Z,5.03
2018-10-05T15:39:13.462Z,4.40
2018-10-05T15:41:45.278Z,5.30
2018-10-05T15:44:39.775Z,7.53
2018-10-05T15:47:12.955Z,8.67
2018-10-05T15:49:42.217Z,10.17
2018-10-05T15:52:14.970Z,9.10
2018-10-05T15:54:46.782Z,13.83
2018-10-05T15:57:19.789Z,15.63
2018-10-05T15:59:51.318Z,23.20
2018-10-05T16:02:23.220Z,27.63
2018-10-05T16:04:56.107Z,21.70
2018-10-05T16:07:27.849Z,20.13
2018-10-05T16:10:02.986Z,19.60
2018-10-05T16:12:31.779Z,17.63
2018-10-05T16:15:00.252Z,18.87
2018-10-05T16:17:28.837Z,26.30
2018-10-05T16:19:57.404Z,33.90
2018-10-05T16:22:32.552Z,25.97
2018-10-05T16:25:08.923Z,24.47
2018-10-05T16:27:39.337Z,18.23
2018-10-05T16:30:11.386Z,19.90
2018-10-05T16:32:41.653Z,16.87
2018-10-05T16:35:11.961Z,13.17
2018-10-05T16:37:41.749Z,8.40
2018-10-05T16:40:13.464Z,5.43
2018-10-05T16:42:46.901Z,7.57
2018-10-05T16:45:20.670Z,7.73
2018-10-05T16:47:51.842Z,10.33
2018-10-05T16:50:23.338Z,5.33
2018-10-05T16:52:52.748Z,5.70
2018-10-05T16:55:30.626Z,6.50
2018-10-05T16:58:05.531Z,8.57
2018-10-05T17:00:37.219Z,6.30
2018-10-05T17:03:13.401Z,6.40
2018-10-05T17:05:49.184Z,6.17
2018-10-05T17:08:28.007Z,6.90
2018-10-05T17:10:58.301Z,10.17
2018-10-05T17:13:29.752Z,11.50
2018-10-05T17:16:02.015Z,8.73
2018-10-05T17:18:34.906Z,7.97
2018-10-05T17:21:03.592Z,8.23
2018-10-05T17:23:37.178Z,7.90
2018-10-05T17:26:11.205Z,7.43
2018-10-05T17:28:43.241Z,12.93
2018-10-05T17:31:16.061Z,10.20
2018-10-05T17:33:48.853Z,14.10
2018-10-05T17:36:19.657Z,8.97
2018-10-05T17:38:58.363Z,8.83
2018-10-05T17:41:41.973Z,8.30
2018-10-05T17:44:15.954Z,9.07
2018-10-05T17:46:46.253Z,9.13
2018-10-05T17:49:16.250Z,12.00
2018-10-05T17:51:51.971Z,9.57
2018-10-05T17:54:22.837Z,10.07
2018-10-05T17:56:52.772Z,9.93
2018-10-05T17:59:24.235Z,9.93
2018-10-05T18:02:03.038Z,8.80
2018-10-05T18:04:33.181Z,10.40
2018-10-05T18:07:04.779Z,10.00
2018-10-05T18:09:35.263Z,10.43
2018-10-05T18:12:10.403Z,10.97
2018-10-05T18:14:43.561Z,9.33
2018-10-05T18:17:16.639Z,9.93
2018-10-05T18:19:48.004Z,10.93
2018-10-05T18:22:16.704Z,9.93
2018-10-05T18:24:47.129Z,10.27
2018-10-05T18:27:18.257Z,12.20
2018-10-05T18:29:50.401Z,8.73
2018-10-05T18:32:22.806Z,10.83
2018-10-05T18:34:51.868Z,10.93
2018-10-05T18:37:21.853Z,10.93
2018-10-05T18:39:54.698Z,9.57
2018-10-05T18:42:24.205Z,16.93
2018-10-05T18:44:56.209Z,10.80
2018-10-05T18:47:30.214Z,9.90
2018-10-05T18:49:59.774Z,9.17
2018-10-05T18:52:29.044Z,9.77
2018-10-05T18:55:04.410Z,10.07
2018-10-05T18:57:36.154Z,9.97
2018-10-05T19:00:10.080Z,9.43
2018-10-05T19:02:44.252Z,10.17
2018-10-05T19:05:14.194Z,10.20
2018-10-05T19:07:46.337Z,9.50
2018-10-05T19:10:19.082Z,9.47
2018-10-05T19:12:49.762Z,11.10
2018-10-05T19:15:19.229Z,16.73
2018-10-05T19:17:50.793Z,12.97
2018-10-05T19:20:19.346Z,20.93
2018-10-05T19:22:47.896Z,13.93
2018-10-05T19:25:16.437Z,13.37
2018-10-05T19:27:45.036Z,13.87
2018-10-05T19:30:13.717Z,10.97
2018-10-05T19:32:42.266Z,15.60
2018-10-05T19:35:10.820Z,12.07
2018-10-05T19:37:39.429Z,11.43
2018-10-05T19:40:08.608Z,10.97
2018-10-05T19:42:37.181Z,11.23
2018-10-05T19:45:06.508Z,18.50
2018-10-05T19:47:35.084Z,23.33
2018-10-05T19:50:03.676Z,9.30
2018-10-05T19:52:32.192Z,8.90
2018-10-05T19:55:01.177Z,10.20
2018-10-05T19:57:31.844Z,10.17
2018-10-05T20:00:02.147Z,11.17
2018-10-05T20:02:30.688Z,11.43
2018-10-05T20:05:07.067Z,12.03
2018-10-05T20:07:35.944Z,11.47
2018-10-05T20:10:05.298Z,11.57
2018-10-05T20:12:33.777Z,12.03
2018-10-05T20:15:02.366Z,14.87
2018-10-05T20:17:31.450Z,13.67
2018-10-05T20:20:00.136Z,11.40
2018-10-05T20:22:28.672Z,14.27
2018-10-05T20:24:57.846Z,12.17
2018-10-05T20:27:33.177Z,19.53
2018-10-05T20:30:01.931Z,12.73
2018-10-05T20:32:30.723Z,13.37
2018-10-05T20:35:00.508Z,11.07
2018-10-05T20:37:29.169Z,11.83
2018-10-05T20:39:57.585Z,10.87
2018-10-05T20:42:26.097Z,12.33
2018-10-05T20:44:54.685Z,13.40
2018-10-05T20:47:23.220Z,11.10
2018-10-05T20:49:51.781Z,12.63
2018-10-05T20:52:20.346Z,17.80
2018-10-05T20:54:48.872Z,14.70
2018-10-05T20:57:17.425Z,12.40
2018-10-05T20:59:48.093Z,16.13
2018-10-05T21:02:21.306Z,15.50
2018-10-05T21:04:50.645Z,15.63
2018-10-05T21:07:19.221Z,10.97
2018-10-05T21:09:47.843Z,12.27
2018-10-05T21:12:16.308Z,11.93
2018-10-05T21:14:44.980Z,12.57
2018-10-05T21:17:14.436Z,13.50
2018-10-05T21:19:44.225Z,14.67
2018-10-05T21:22:12.986Z,15.17
2018-10-05T21:24:41.552Z,13.37
2018-10-05T21:27:10.145Z,13.77
2018-10-05T21:29:39.396Z,13.93
2018-10-05T21:32:08.010Z,15.13
2018-10-05T21:34:37.769Z,14.80
2018-10-05T21:37:06.524Z,16.23
2018-10-05T21:39:35.201Z,16.37
2018-10-05T21:42:04.485Z,14.63
2018-10-05T21:44:33.061Z,17.83
2018-10-05T21:47:01.608Z,14.07
2018-10-05T21:49:30.209Z,15.33
2018-10-05T21:51:58.749Z,13.70
2018-10-05T21:54:27.292Z,15.17
2018-10-05T21:56:56.188Z,17.63
2018-10-05T21:59:25.325Z,15.03
2018-10-05T22:01:54.576Z,32.90
2018-10-05T22:04:23.120Z,37.77
2018-10-05T22:06:52.448Z,19.20
2018-10-05T22:09:21.511Z,15.97
2018-10-05T22:11:50.224Z,16.90
2018-10-05T22:14:18.777Z,17.47
2018-10-05T22:16:47.359Z,35.10
2018-10-05T22:19:16.023Z,19.83
2018-10-05T22:21:44.628Z,18.00
2018-10-05T22:24:13.149Z,17.60
2018-10-05T22:26:42.177Z,19.80
2018-10-05T22:29:11.192Z,23.10
2018-10-05T22:31:39.760Z,19.43
2018-10-05T22:34:08.394Z,27.47
2018-10-05T22:36:37.232Z,29.57
2018-10-05T22:39:11.798Z,22.27
2018-10-05T22:41:40.480Z,22.43
2018-10-05T22:44:09.218Z,17.03
2018-10-05T22:46:37.829Z,20.63
2018-10-05T22:49:06.684Z,19.03
2018-10-05T22:51:35.277Z,18.57
2018-10-05T22:54:03.813Z,18.27
2018-10-05T22:56:33.788Z,20.67
2018-10-05T22:59:09.128Z,18.83
2018-10-05T23:01:38.341Z,17.53
2018-10-05T23:04:08.348Z,19.30
2018-10-05T23:06:38.309Z,18.37
2018-10-05T23:09:09.664Z,20.90
2018-10-05T23:11:39.425Z,18.23
2018-10-05T23:14:21.606Z,19.37
2018-10-05T23:17:13.009Z,16.00
2018-10-05T23:19:42.557Z,14.40
2018-10-05T23:22:11.120Z,14.50
2018-10-05T23:24:40.028Z,14.37
2018-10-05T23:27:09.065Z,19.63
2018-10-05T23:29:38.533Z,14.43
2018-10-05T23:32:07.433Z,16.30
2018-10-05T23:34:36.504Z,17.53
2018-10-05T23:37:05.984Z,18.67
2018-10-05T23:39:35.246Z,18.43
2018-10-05T23:42:05.037Z,18.67
2018-10-05T23:44:33.593Z,20.80
2018-10-05T23:47:02.209Z,15.30
2018-10-05T23:49:31.816Z,18.80
2018-10-05T23:52:11.337Z,15.37
2018-10-05T23:54:40.848Z,19.20
2018-10-05T23:57:10.053Z,17.90
2018-10-05T23:59:39.592Z,20.53
